Terminal Aerodrome Forecast
Issued by NWS

Home | Current Version | Previous Version | Text Only | Print | Product List | Glossary Off
Versions: 1 2 3 4 5 6 7 8 9 10 11 12 13 14 15 16 17

285
FTUS43 KGRB 282016 AAA
TAFAUW
TAF AMD
KAUW 282016Z 2820/2918 05005KT P6SM VCSH SCT025 OVC035
      TEMPO 2820/2822 4SM -SHRA BR SCT012 OVC025
     FM282200 06007KT P6SM SCT015 BKN030
     FM290700 03004KT P6SM SCT030 BKN100
     FM291200 05005KT P6SM SCT120=

USA.gov is the U.S. government's official web portal to all federal, state and local government web resources and services.